Time;durP1;ratioP1;P1;durP2;ratioP2;P2;SDS_P1;SDS_P2;PMS_P1;PMS_P2;Temp;Humidity;BMP_temperature;BMP_pressure;BME280_temperature;BME280_humidity;BME280_pressure;Samples;Min_cycle;Max_cycle;Signal;HPM_P1;HPM_P2
2022/02/06 00:00:59;;;;;;;6.50;1.60;;;;;;;;;;4921793;29;20565;-80
2022/02/06 00:03:24;;;;;;;2.53;1.13;;;;;;;;;;4922021;29;20028;-78
2022/02/06 00:05:50;;;;;;;3.13;1.27;;;;;;;;;;4904437;29;20035;-80
2022/02/06 00:08:16;;;;;;;4.22;1.38;;;;;;;;;;4904361;29;20021;-79
2022/02/06 00:10:41;;;;;;;5.60;1.50;;;;;;;;;;4908866;29;20399;-79
2022/02/06 00:13:07;;;;;;;3.67;1.48;;;;;;;;;;4924100;29;20012;-80
2022/02/06 00:15:33;;;;;;;6.85;1.67;;;;;;;;;;4924304;29;20087;-78
2022/02/06 00:17:58;;;;;;;4.88;1.40;;;;;;;;;;4906455;29;20548;-79
2022/02/06 00:20:30;;;;;;;3.00;0.80;;;;;;;;;;4905626;29;20414;-80
2022/02/06 00:22:59;;;;;;;3.15;1.10;;;;;;;;;;4922068;29;20565;-79
2022/02/06 00:39:00;;;;;;;4.75;1.35;;;;;;;;;;4923970;29;20031;-80
2022/02/06 00:41:14;;;;;;;4.53;1.08;;;;;;;;;;4922590;29;20209;-79
2022/02/06 00:43:40;;;;;;;1.98;0.98;;;;;;;;;;4905738;29;20525;-79
2022/02/06 00:46:08;;;;;;;6.70;1.80;;;;;;;;;;4904334;29;20027;-79
2022/02/06 00:48:36;;;;;;;4.47;1.35;;;;;;;;;;4903988;29;20024;-80
2022/02/06 00:53:30;;;;;;;3.57;1.10;;;;;;;;;;4924845;29;20028;-80
2022/02/06 00:55:58;;;;;;;2.10;0.90;;;;;;;;;;4911286;29;20028;-80
2022/02/06 00:58:23;;;;;;;7.90;0.90;;;;;;;;;;4911914;29;20024;-80
2022/02/06 01:00:49;;;;;;;3.80;1.27;;;;;;;;;;4907978;29;20060;-80
2022/02/06 01:03:15;;;;;;;2.63;0.95;;;;;;;;;;4923197;29;20423;-80
2022/02/06 01:05:40;;;;;;;4.22;1.02;;;;;;;;;;4906185;29;20031;-79
2022/02/06 01:08:06;;;;;;;0.57;0.32;;;;;;;;;;4907138;29;20028;-81
2022/02/06 01:10:31;;;;;;;7.40;1.10;;;;;;;;;;4907188;29;20481;-80
2022/02/06 01:13:10;;;;;;;7.70;1.77;;;;;;;;;;4906632;29;20028;-81
2022/02/06 01:15:36;;;;;;;6.90;1.58;;;;;;;;;;4922881;29;20031;-79
2022/02/06 01:18:06;;;;;;;2.78;1.20;;;;;;;;;;4922706;29;20043;-80
2022/02/06 01:20:37;;;;;;;6.78;1.35;;;;;;;;;;4922121;29;20156;-80
2022/02/06 01:23:22;;;;;;;5.38;1.70;;;;;;;;;;4904465;29;20036;-80
2022/02/06 01:25:56;;;;;;;5.22;1.15;;;;;;;;;;4923936;29;20020;-80
2022/02/06 01:28:30;;;;;;;3.05;0.93;;;;;;;;;;4930969;29;20020;-79
2022/02/06 01:33:43;;;;;;;4.32;1.42;;;;;;;;;;4926828;29;20025;-79
2022/02/06 01:41:20;;;;;;;4.97;1.23;;;;;;;;;;4922669;29;20115;-80
2022/02/06 01:43:52;;;;;;;4.47;1.65;;;;;;;;;;4923858;29;20239;-80
2022/02/06 02:08:29;;;;;;;3.33;1.58;;;;;;;;;;4927857;29;20020;-80
2022/02/06 02:24:08;;;;;;;7.50;1.75;;;;;;;;;;4928704;29;20450;-80
2022/02/06 02:48:02;;;;;;;6.00;1.10;;;;;;;;;;4932959;29;20079;-79
2022/02/06 02:50:30;;;;;;;2.58;0.95;;;;;;;;;;4927337;29;20031;-79
2022/02/06 02:55:45;;;;;;;4.13;1.02;;;;;;;;;;4921557;29;20111;-79
2022/02/06 03:00:47;;;;;;;6.85;1.30;;;;;;;;;;4920627;29;20028;-79
2022/02/06 03:03:16;;;;;;;2.38;0.75;;;;;;;;;;4902552;29;20028;-79
2022/02/06 03:05:42;;;;;;;7.47;1.23;;;;;;;;;;4903929;29;20020;-79
2022/02/06 03:08:08;;;;;;;4.78;1.15;;;;;;;;;;4904329;29;20035;-79
2022/02/06 03:10:35;;;;;;;5.55;1.20;;;;;;;;;;4908106;29;20032;-79
2022/02/06 03:13:04;;;;;;;5.88;1.00;;;;;;;;;;4907387;29;20024;-79
2022/02/06 03:18:03;;;;;;;6.28;1.15;;;;;;;;;;4924472;29;20047;-79
2022/02/06 03:20:29;;;;;;;3.22;1.35;;;;;;;;;;4913088;29;20048;-78
2022/02/06 03:22:55;;;;;;;2.88;1.20;;;;;;;;;;4929785;29;20040;-79
2022/02/06 03:25:22;;;;;;;3.78;0.85;;;;;;;;;;4930475;29;20050;-79
2022/02/06 03:27:48;;;;;;;4.47;1.20;;;;;;;;;;4914453;29;20087;-79
2022/02/06 03:30:14;;;;;;;2.05;1.00;;;;;;;;;;4911224;29;20057;-79
2022/02/06 03:32:39;;;;;;;2.53;1.02;;;;;;;;;;4915108;29;20020;-79
2022/02/06 03:35:05;;;;;;;7.82;1.48;;;;;;;;;;4931607;29;20076;-80
2022/02/06 03:37:30;;;;;;;4.72;1.35;;;;;;;;;;4931845;29;20425;-79
2022/02/06 03:39:57;;;;;;;2.92;0.93;;;;;;;;;;4932780;29;20022;-78
2022/02/06 03:42:29;;;;;;;4.63;1.27;;;;;;;;;;4915774;29;20016;-79
2022/02/06 03:44:59;;;;;;;7.82;1.60;;;;;;;;;;4914717;29;20055;-79
2022/02/06 03:47:33;;;;;;;2.67;1.10;;;;;;;;;;4929047;29;20020;-79
2022/02/06 03:50:03;;;;;;;4.78;1.30;;;;;;;;;;4910157;29;20034;-78
2022/02/06 03:52:36;;;;;;;2.30;0.90;;;;;;;;;;4912474;29;20028;-79
2022/02/06 03:55:01;;;;;;;5.55;1.50;;;;;;;;;;4929875;29;20024;-79
2022/02/06 03:57:26;;;;;;;5.68;1.10;;;;;;;;;;4912887;29;20055;-79
2022/02/06 03:59:52;;;;;;;6.13;0.93;;;;;;;;;;4930881;29;20084;-79
2022/02/06 04:02:17;;;;;;;7.45;1.45;;;;;;;;;;4930415;29;20032;-79
2022/02/06 04:04:42;;;;;;;5.60;1.10;;;;;;;;;;4912552;29;20036;-78
2022/02/06 04:07:12;;;;;;;3.28;0.70;;;;;;;;;;4912186;29;20024;-79
2022/02/06 04:09:45;;;;;;;2.72;1.00;;;;;;;;;;4910537;29;20024;-79
2022/02/06 04:12:13;;;;;;;2.00;1.00;;;;;;;;;;4926615;29;20016;-79
2022/02/06 04:14:53;;;;;;;3.05;1.08;;;;;;;;;;4908438;29;20020;-79
2022/02/06 04:17:21;;;;;;;6.88;1.33;;;;;;;;;;4909778;29;20108;-80
2022/02/06 04:19:47;;;;;;;3.60;0.90;;;;;;;;;;4924513;29;20021;-79
2022/02/06 04:22:12;;;;;;;2.75;1.20;;;;;;;;;;4966634;23;20737;-82
2022/02/06 04:24:37;;;;;;;3.25;0.93;;;;;;;;;;4934841;29;20067;-83
2022/02/06 04:27:03;;;;;;;3.35;1.10;;;;;;;;;;4953724;29;20111;-83
2022/02/06 04:29:28;;;;;;;5.40;1.25;;;;;;;;;;4952699;29;20024;-82
2022/02/06 04:31:54;;;;;;;4.70;0.88;;;;;;;;;;4950123;29;20024;-82
2022/02/06 04:34:23;;;;;;;1.65;0.85;;;;;;;;;;4934905;29;20100;-82
2022/02/06 04:50:47;;;;;;;1.77;0.77;;;;;;;;;;4935292;29;20024;-82
2022/02/06 05:11:14;;;;;;;2.63;0.60;;;;;;;;;;4939554;29;20098;-83
2022/02/06 05:14:52;;;;;;;3.10;0.90;;;;;;;;;;4941173;29;20020;-83
2022/02/06 05:20:30;;;;;;;2.28;0.60;;;;;;;;;;4939602;29;19914;-83
2022/02/06 05:30:36;;;;;;;0.57;0.15;;;;;;;;;;4942296;29;20039;-83
2022/02/06 05:33:02;;;;;;;1.38;0.60;;;;;;;;;;4943127;29;20032;-83
2022/02/06 05:35:28;;;;;;;0.90;0.50;;;;;;;;;;4925763;29;20020;-83
2022/02/06 05:37:54;;;;;;;4.63;0.70;;;;;;;;;;4925580;29;20082;-84
2022/02/06 05:40:20;;;;;;;2.85;0.60;;;;;;;;;;4941908;29;20005;-82
2022/02/06 05:42:45;;;;;;;3.00;0.80;;;;;;;;;;4941955;29;20087;-83
2022/02/06 05:45:11;;;;;;;3.05;0.68;;;;;;;;;;4940872;29;20035;-84
2022/02/06 05:47:37;;;;;;;7.60;1.35;;;;;;;;;;4941023;29;20020;-83
2022/02/06 05:50:04;;;;;;;2.28;0.80;;;;;;;;;;4942255;29;20047;-85
2022/02/06 05:52:31;;;;;;;1.77;0.52;;;;;;;;;;4941946;29;20017;-83
2022/02/06 05:54:56;;;;;;;0.25;0.22;;;;;;;;;;4942304;29;20028;-84
2022/02/06 05:57:22;;;;;;;2.33;0.90;;;;;;;;;;4942641;29;20024;-84
2022/02/06 05:59:47;;;;;;;4.10;0.73;;;;;;;;;;4942869;29;20024;-83
2022/02/06 06:04:50;;;;;;;0.80;0.40;;;;;;;;;;4982335;23;20089;-83
2022/02/06 06:07:16;;;;;;;1.67;0.40;;;;;;;;;;4961348;29;20028;-84
2022/02/06 06:09:42;;;;;;;5.03;0.95;;;;;;;;;;4961656;29;20016;-84
2022/02/06 06:17:19;;;;;;;1.13;0.50;;;;;;;;;;5028665;23;20036;-83
2022/02/06 06:19:48;;;;;;;2.90;0.80;;;;;;;;;;4945039;29;20083;-83
2022/02/06 06:22:14;;;;;;;1.80;0.70;;;;;;;;;;4938584;29;20223;-83
2022/02/06 06:24:43;;;;;;;0.90;0.40;;;;;;;;;;4941967;29;20024;-83
2022/02/06 06:27:09;;;;;;;1.05;0.40;;;;;;;;;;5135456;23;20071;-82
2022/02/06 06:29:40;;;;;;;1.27;0.60;;;;;;;;;;5232203;23;20078;-84
2022/02/06 06:32:05;;;;;;;2.28;0.50;;;;;;;;;;4940601;29;20012;-84
2022/02/06 06:34:30;;;;;;;4.65;0.60;;;;;;;;;;4994558;23;20326;-83
2022/02/06 06:37:00;;;;;;;1.65;0.60;;;;;;;;;;4943954;29;20028;-84
2022/02/06 06:39:44;;;;;;;2.60;1.02;;;;;;;;;;4944728;29;20048;-84
2022/02/06 06:42:10;;;;;;;0.73;0.40;;;;;;;;;;5011831;23;20008;-84
2022/02/06 06:44:44;;;;;;;2.35;0.60;;;;;;;;;;4943767;29;20070;-84
2022/02/06 06:47:09;;;;;;;1.73;0.70;;;;;;;;;;4960010;29;20020;-84
2022/02/06 06:49:35;;;;;;;5.00;1.02;;;;;;;;;;4960352;29;20059;-84
2022/02/06 06:52:04;;;;;;;1.35;0.50;;;;;;;;;;4957322;29;20016;-84
2022/02/06 06:54:46;;;;;;;2.78;0.75;;;;;;;;;;4974696;23;20051;-85
2022/02/06 06:57:19;;;;;;;1.63;0.60;;;;;;;;;;4960838;29;20030;-85
2022/02/06 07:00:19;;;;;;;1.95;0.55;;;;;;;;;;4960623;29;20012;-83
2022/02/06 07:05:04;;;;;;;3.72;0.80;;;;;;;;;;5051646;23;20035;-85
2022/02/06 07:07:33;;;;;;;4.85;0.80;;;;;;;;;;4960273;29;20059;-83
2022/02/06 07:10:02;;;;;;;3.20;0.82;;;;;;;;;;5009846;23;20039;-86
2022/02/06 07:12:30;;;;;;;4.13;1.15;;;;;;;;;;4941092;29;20012;-84
2022/02/06 07:14:56;;;;;;;2.53;1.13;;;;;;;;;;4940925;29;20000;-85
2022/02/06 07:17:24;;;;;;;5.30;1.20;;;;;;;;;;4983083;23;20062;-85
2022/02/06 07:19:49;;;;;;;4.80;0.80;;;;;;;;;;4960028;29;20042;-84
2022/02/06 07:22:17;;;;;;;2.10;0.70;;;;;;;;;;4938581;29;20020;-85
2022/02/06 07:24:48;;;;;;;6.33;1.20;;;;;;;;;;4924756;29;20060;-85
2022/02/06 07:27:27;;;;;;;1.95;0.88;;;;;;;;;;5031463;23;20091;-84
2022/02/06 07:29:52;;;;;;;3.28;0.65;;;;;;;;;;4924058;29;20019;-85
2022/02/06 07:34:51;;;;;;;1.55;0.68;;;;;;;;;;4957716;29;19929;-85
2022/02/06 07:37:17;;;;;;;3.08;0.90;;;;;;;;;;4959886;29;20004;-85
2022/02/06 07:39:45;;;;;;;6.95;1.10;;;;;;;;;;5105640;23;20038;-85
2022/02/06 07:42:11;;;;;;;2.63;1.02;;;;;;;;;;4940256;29;20032;-85
2022/02/06 07:44:49;;;;;;;;;;;;;;;;;;;;;
2022/02/06 07:47:21;;;;;;;4.53;0.80;;;;;;;;;;5199326;23;20191;-78
2022/02/06 07:49:53;;;;;;;3.63;1.80;;;;;;;;;;5154392;23;20115;-86
2022/02/06 07:52:26;;;;;;;2.58;0.60;;;;;;;;;;4936242;29;20032;-84
2022/02/06 07:54:52;;;;;;;4.88;0.90;;;;;;;;;;4923456;29;20096;-86
2022/02/06 07:57:18;;;;;;;2.63;1.00;;;;;;;;;;4923688;29;20028;-85
2022/02/06 07:59:53;;;;;;;1.42;0.65;;;;;;;;;;4927058;29;20012;-84
2022/02/06 08:02:26;;;;;;;2.90;0.88;;;;;;;;;;5121998;23;20055;-85
2022/02/06 08:05:05;;;;;;;4.68;0.88;;;;;;;;;;4943173;29;20048;-86
2022/02/06 08:07:32;;;;;;;2.78;0.75;;;;;;;;;;4928621;29;20489;-85
2022/02/06 08:10:15;;;;;;;2.13;0.82;;;;;;;;;;5054090;23;20039;-86
2022/02/06 08:12:54;;;;;;;1.63;0.50;;;;;;;;;;5261794;23;20031;-80
2022/02/06 08:15:21;;;;;;;;;;;;;;;;;;4964052;29;20028;-86
2022/02/06 08:17:47;;;;;;;1.73;0.80;;;;;;;;;;4961979;29;20009;-85
2022/02/06 08:20:18;;;;;;;7.53;0.82;;;;;;;;;;4963016;29;20048;-84
2022/02/06 08:22:44;;;;;;;3.40;0.80;;;;;;;;;;4953466;29;20024;-86
2022/02/06 08:25:13;;;;;;;1.80;0.70;;;;;;;;;;4926553;29;20032;-86
2022/02/06 08:27:44;;;;;;;1.35;0.52;;;;;;;;;;4948463;23;20025;-87
2022/02/06 08:30:11;;;;;;;3.67;0.80;;;;;;;;;;4944063;29;20029;-86
2022/02/06 08:32:36;;;;;;;1.73;0.60;;;;;;;;;;4935463;29;20020;-86
2022/02/06 08:35:02;;;;;;;2.25;0.80;;;;;;;;;;4925118;29;20009;-86
2022/02/06 08:37:30;;;;;;;1.13;0.50;;;;;;;;;;5191716;23;20063;-79
2022/02/06 08:39:55;;;;;;;2.40;0.75;;;;;;;;;;4943952;29;20016;-86
2022/02/06 08:50:01;;;;;;;3.80;0.80;;;;;;;;;;4998002;23;20036;-86
2022/02/06 08:52:30;;;;;;;0.98;0.45;;;;;;;;;;4938782;29;20045;-85
2022/02/06 08:55:00;;;;;;;3.75;1.00;;;;;;;;;;4943305;29;20055;-86
2022/02/06 08:57:31;;;;;;;2.60;0.80;;;;;;;;;;4943174;29;20001;-86
2022/02/06 08:59:59;;;;;;;2.78;1.05;;;;;;;;;;4927691;29;20024;-86
2022/02/06 09:02:25;;;;;;;3.47;1.23;;;;;;;;;;4943222;29;20020;-87
2022/02/06 09:04:55;;;;;;;1.75;0.65;;;;;;;;;;4943772;29;20084;-87
2022/02/06 09:12:32;;;;;;;4.03;1.15;;;;;;;;;;4952772;29;20048;-85
2022/02/06 09:15:16;;;;;;;3.15;1.20;;;;;;;;;;4943911;29;20028;-86
2022/02/06 09:17:48;;;;;;;2.50;0.80;;;;;;;;;;5506786;23;20022;-84
2022/02/06 09:22:54;;;;;;;2.72;0.60;;;;;;;;;;4973752;23;20111;-85
2022/02/06 09:25:22;;;;;;;6.05;2.25;;;;;;;;;;4943372;29;20324;-86
2022/02/06 09:27:53;;;;;;;2.53;0.82;;;;;;;;;;4942850;29;20011;-86
2022/02/06 09:35:53;;;;;;;2.47;0.95;;;;;;;;;;5014540;23;20128;-86
2022/02/06 09:38:30;;;;;;;2.05;0.40;;;;;;;;;;5053599;23;20036;-86
2022/02/06 09:43:29;;;;;;;2.60;0.38;;;;;;;;;;5168475;23;20055;-87
2022/02/06 09:45:56;;;;;;;1.23;0.50;;;;;;;;;;5437708;23;20558;-85
2022/02/06 09:51:20;;;;;;;4.63;0.63;;;;;;;;;;4962338;29;20000;-86
2022/02/06 09:54:00;;;;;;;1.65;0.63;;;;;;;;;;4942471;29;20013;-86
2022/02/06 09:59:04;;;;;;;3.17;0.80;;;;;;;;;;5030666;23;20064;-87
2022/02/06 10:04:26;;;;;;;1.63;0.52;;;;;;;;;;5527988;23;20119;-83
2022/02/06 10:07:10;;;;;;;0.98;0.40;;;;;;;;;;4961472;29;20091;-88
2022/02/06 10:09:54;;;;;;;2.20;0.73;;;;;;;;;;4945788;29;20042;-87
2022/02/06 10:12:23;;;;;;;0.93;0.35;;;;;;;;;;5003982;23;20144;-87
2022/02/06 10:14:51;;;;;;;2.30;0.60;;;;;;;;;;4942394;29;20008;-87
2022/02/06 10:17:24;;;;;;;4.05;0.68;;;;;;;;;;4942845;29;20015;-86
2022/02/06 10:19:54;;;;;;;1.90;1.17;;;;;;;;;;5602374;23;20043;-86
2022/02/06 10:48:57;;;;;;;;;;;;;;;;;;;;;
2022/02/06 10:51:35;;;;;;;1.48;0.57;;;;;;;;;;5008303;23;20053;-83
2022/02/06 12:46:43;;;;;;;;;;;;;;;;;;;;;
2022/02/06 12:49:39;;;;;;;3.15;0.40;;;;;;;;;;6244528;23;19992;-84
2022/02/06 12:52:28;;;;;;;1.25;0.60;;;;;;;;;;6250280;23;20000;-84
2022/02/06 12:55:01;;;;;;;2.35;0.20;;;;;;;;;;6272992;23;20044;-83
2022/02/06 12:57:44;;;;;;;1.75;0.50;;;;;;;;;;6247973;23;19992;-84
2022/02/06 13:00:22;;;;;;;0.85;0.40;;;;;;;;;;6273056;22;19988;-84
2022/02/06 13:08:03;;;;;;;0.25;0.03;;;;;;;;;;6237524;22;20012;-83
2022/02/06 13:21:36;;;;;;;0.45;0.30;;;;;;;;;;6232964;22;20008;-85
2022/02/06 13:24:19;;;;;;;0.70;0.20;;;;;;;;;;6218836;23;20000;-85
2022/02/06 13:27:04;;;;;;;0.85;0.38;;;;;;;;;;6217558;23;19989;-84
2022/02/06 13:37:57;;;;;;;0.20;0.10;;;;;;;;;;6254585;22;20015;-85
2022/02/06 13:40:49;;;;;;;;;;;;;;;;;;;;;
2022/02/06 13:43:18;;;;;;;0.20;0.10;;;;;;;;;;6244229;23;20004;-84
2022/02/06 13:46:05;;;;;;;2.75;0.40;;;;;;;;;;6243826;22;20000;-85
2022/02/06 13:51:07;;;;;;;0.17;0.10;;;;;;;;;;6171088;22;20598;-84
2022/02/06 13:53:52;;;;;;;0.40;0.15;;;;;;;;;;6244304;22;20016;-84
2022/02/06 13:56:37;;;;;;;0.55;0.20;;;;;;;;;;6218128;23;20015;-83
2022/02/06 14:45:50;;;;;;;0.20;0.20;;;;;;;;;;6181740;22;20021;-83
2022/02/06 14:48:39;;;;;;;0.47;0.30;;;;;;;;;;6215328;23;20016;-84
2022/02/06 14:51:07;;;;;;;0.63;0.20;;;;;;;;;;6213989;23;19997;-83
2022/02/06 15:53:06;;;;;;;1.63;0.33;;;;;;;;;;6172139;23;20984;31
2022/02/06 15:58:16;;;;;;;0.20;0.10;;;;;;;;;;6184057;22;20008;-78
2022/02/06 16:06:03;;;;;;;0.45;0.13;;;;;;;;;;6219809;22;20008;-84
2022/02/06 16:18:48;;;;;;;0.10;0.10;;;;;;;;;;6211513;22;20028;-82
2022/02/06 16:21:14;;;;;;;0.95;0.38;;;;;;;;;;6218824;23;19996;-82
2022/02/06 16:23:49;;;;;;;;;;;;;;;;;;;;;
2022/02/06 16:26:24;;;;;;;0.10;0.10;;;;;;;;;;6245549;23;20408;-77
2022/02/06 16:28:53;;;;;;;2.10;0.35;;;;;;;;;;6245347;23;20000;-76
2022/02/06 16:31:18;;;;;;;1.02;0.40;;;;;;;;;;6219058;23;20008;-77
2022/02/06 16:33:44;;;;;;;1.35;0.43;;;;;;;;;;6245122;23;20474;-77
2022/02/06 16:36:09;;;;;;;0.60;0.30;;;;;;;;;;6219374;23;20000;-77
2022/02/06 16:38:34;;;;;;;0.40;0.20;;;;;;;;;;6246944;23;19996;-76
2022/02/06 16:40:59;;;;;;;1.27;0.50;;;;;;;;;;6219513;23;19996;-76
2022/02/06 16:43:25;;;;;;;1.23;0.50;;;;;;;;;;6245613;23;19996;-77
2022/02/06 16:45:50;;;;;;;0.40;0.30;;;;;;;;;;6245550;23;20418;-76
2022/02/06 16:48:19;;;;;;;1.00;0.45;;;;;;;;;;6245613;23;20088;-76
2022/02/06 16:50:44;;;;;;;0.20;0.17;;;;;;;;;;6245814;23;20119;-77
2022/02/06 16:53:09;;;;;;;1.00;0.47;;;;;;;;;;6245322;23;20032;-76
2022/02/06 16:55:35;;;;;;;1.95;0.50;;;;;;;;;;6246384;23;20097;-76
2022/02/06 16:58:00;;;;;;;0.57;0.30;;;;;;;;;;6245370;23;19996;-77
2022/02/06 17:00:25;;;;;;;0.40;0.20;;;;;;;;;;6245335;23;19992;-75
2022/02/06 17:02:52;;;;;;;0.80;0.30;;;;;;;;;;6245110;23;20384;-76
2022/02/06 17:05:18;;;;;;;0.10;0.10;;;;;;;;;;6218826;23;20390;-77
2022/02/06 17:07:43;;;;;;;0.38;0.22;;;;;;;;;;6245403;23;20019;-76
2022/02/06 17:10:08;;;;;;;2.65;0.38;;;;;;;;;;6245708;23;20000;-76
2022/02/06 17:12:34;;;;;;;0.52;0.20;;;;;;;;;;6245130;23;20026;-76
2022/02/06 17:14:59;;;;;;;0.40;0.22;;;;;;;;;;6244735;23;19997;-77
2022/02/06 17:17:25;;;;;;;4.03;0.82;;;;;;;;;;6244773;23;20003;-76
2022/02/06 17:19:53;;;;;;;0.77;0.30;;;;;;;;;;6244840;23;20382;-76
2022/02/06 17:22:18;;;;;;;0.40;0.25;;;;;;;;;;6244628;23;20030;-76
2022/02/06 17:24:43;;;;;;;0.50;0.20;;;;;;;;;;6244727;22;20011;-76
2022/02/06 17:27:08;;;;;;;0.70;0.20;;;;;;;;;;6218280;23;20008;-76
2022/02/06 17:29:33;;;;;;;1.40;0.30;;;;;;;;;;6244965;23;20418;-76
2022/02/06 17:31:59;;;;;;;0.85;0.30;;;;;;;;;;6244507;23;20060;-76
2022/02/06 17:34:26;;;;;;;0.50;0.30;;;;;;;;;;6245380;23;20410;-77
2022/02/06 17:36:51;;;;;;;2.25;0.38;;;;;;;;;;6218380;23;20417;-77
2022/02/06 17:39:17;;;;;;;0.85;0.40;;;;;;;;;;6245448;23;20083;-76
2022/02/06 17:41:42;;;;;;;1.25;0.50;;;;;;;;;;6218279;23;20406;-76
2022/02/06 17:44:07;;;;;;;0.70;0.45;;;;;;;;;;6245958;23;20007;-76
2022/02/06 17:46:33;;;;;;;0.93;0.50;;;;;;;;;;6245508;23;19996;-76
2022/02/06 17:48:58;;;;;;;1.65;0.50;;;;;;;;;;6244723;23;20000;-76
2022/02/06 17:51:25;;;;;;;4.95;0.55;;;;;;;;;;6245391;23;20004;-76
2022/02/06 17:53:54;;;;;;;1.83;0.55;;;;;;;;;;6244975;23;20095;-76
2022/02/06 17:56:19;;;;;;;2.28;0.60;;;;;;;;;;6218217;23;20003;-76
2022/02/06 17:58:45;;;;;;;1.63;0.43;;;;;;;;;;6244980;23;19996;-76
2022/02/06 18:01:10;;;;;;;1.85;0.70;;;;;;;;;;6244994;23;20414;-76
2022/02/06 18:03:35;;;;;;;1.70;0.50;;;;;;;;;;6244495;23;20026;-76
2022/02/06 18:06:00;;;;;;;0.50;0.30;;;;;;;;;;6244875;23;19996;-76
2022/02/06 18:08:27;;;;;;;0.22;0.20;;;;;;;;;;6245320;23;20434;-76
2022/02/06 18:10:52;;;;;;;1.10;0.30;;;;;;;;;;6245129;23;19997;-76
2022/02/06 18:13:17;;;;;;;1.30;0.73;;;;;;;;;;6218078;23;20099;-76
2022/02/06 18:15:43;;;;;;;0.82;0.30;;;;;;;;;;6218155;23;19996;-76
2022/02/06 18:18:08;;;;;;;2.60;0.50;;;;;;;;;;6218271;23;20076;-76
2022/02/06 18:20:33;;;;;;;1.00;0.43;;;;;;;;;;6218177;23;20027;-76
2022/02/06 18:23:01;;;;;;;0.43;0.30;;;;;;;;;;6244534;23;20000;-76
2022/02/06 18:25:26;;;;;;;0.40;0.20;;;;;;;;;;6217421;23;20338;-76
2022/02/06 18:27:51;;;;;;;1.27;0.40;;;;;;;;;;6218149;23;20000;-76
2022/02/06 18:30:16;;;;;;;1.83;0.45;;;;;;;;;;6244730;23;20003;-76
2022/02/06 18:32:42;;;;;;;0.85;0.35;;;;;;;;;;6244658;23;20000;-76
2022/02/06 18:35:07;;;;;;;1.95;0.60;;;;;;;;;;6244574;23;20003;-76
2022/02/06 18:37:32;;;;;;;2.97;0.45;;;;;;;;;;6244793;23;20023;-76
2022/02/06 18:39:58;;;;;;;0.90;0.43;;;;;;;;;;6245008;23;20115;-76
2022/02/06 18:42:24;;;;;;;1.13;0.40;;;;;;;;;;6244680;23;20491;-76
2022/02/06 18:44:49;;;;;;;0.77;0.38;;;;;;;;;;6244527;23;20028;-76
2022/02/06 18:47:15;;;;;;;2.47;0.47;;;;;;;;;;6244816;23;20019;-76
2022/02/06 18:49:40;;;;;;;2.42;0.43;;;;;;;;;;6244778;23;19996;-76
2022/02/06 18:52:07;;;;;;;1.35;0.38;;;;;;;;;;6217628;23;20066;-76
2022/02/06 18:54:33;;;;;;;0.75;0.20;;;;;;;;;;6217668;23;20333;-76
2022/02/06 18:57:01;;;;;;;1.42;0.50;;;;;;;;;;6244641;23;19993;-75
2022/02/06 18:59:28;;;;;;;1.75;0.40;;;;;;;;;;6244480;23;20012;-76
2022/02/06 19:01:57;;;;;;;1.48;0.45;;;;;;;;;;6244173;23;19992;-76
2022/02/06 19:04:23;;;;;;;1.23;0.40;;;;;;;;;;6244324;23;20071;-76
2022/02/06 19:06:48;;;;;;;1.55;0.45;;;;;;;;;;6244331;23;20020;-76
2022/02/06 19:09:14;;;;;;;0.63;0.30;;;;;;;;;;6244453;23;20433;-76
2022/02/06 19:11:39;;;;;;;3.20;0.60;;;;;;;;;;6244369;23;20272;-76
2022/02/06 19:14:04;;;;;;;1.98;0.45;;;;;;;;;;6244529;23;20433;-76
2022/02/06 19:16:30;;;;;;;0.35;0.30;;;;;;;;;;6246478;23;20421;-75
2022/02/06 19:18:56;;;;;;;0.68;0.35;;;;;;;;;;6246525;23;20000;-75
2022/02/06 19:21:22;;;;;;;0.65;0.25;;;;;;;;;;6246501;23;19996;-75
2022/02/06 19:23:47;;;;;;;1.08;0.50;;;;;;;;;;6246109;23;20425;-76
2022/02/06 19:26:12;;;;;;;2.88;0.20;;;;;;;;;;6246353;23;20008;-76
2022/02/06 19:28:39;;;;;;;0.35;0.28;;;;;;;;;;6246336;23;20337;-76
2022/02/06 19:31:04;;;;;;;0.45;0.30;;;;;;;;;;6246420;23;20231;-76
2022/02/06 19:33:31;;;;;;;0.30;0.13;;;;;;;;;;6219187;23;20430;-76
2022/02/06 19:36:02;;;;;;;1.45;0.30;;;;;;;;;;6219249;23;20216;-76
2022/02/06 19:38:27;;;;;;;0.93;0.20;;;;;;;;;;6219456;23;20004;-75
2022/02/06 19:40:53;;;;;;;0.90;0.40;;;;;;;;;;6246127;23;20000;-76
2022/02/06 19:43:18;;;;;;;1.15;0.40;;;;;;;;;;6246026;23;20417;-76
2022/02/06 19:45:44;;;;;;;0.32;0.15;;;;;;;;;;6246063;23;20475;-75
2022/02/06 19:48:09;;;;;;;0.50;0.22;;;;;;;;;;6246408;23;19997;-75
2022/02/06 19:50:34;;;;;;;0.30;0.17;;;;;;;;;;6219784;23;20004;-75
2022/02/06 19:53:00;;;;;;;1.08;0.30;;;;;;;;;;6219089;23;20032;-76
2022/02/06 19:55:25;;;;;;;0.13;0.13;;;;;;;;;;6245965;23;19988;-75
2022/02/06 19:57:53;;;;;;;1.02;0.50;;;;;;;;;;6245885;23;19996;-76
2022/02/06 20:00:18;;;;;;;4.80;0.73;;;;;;;;;;6218931;23;19996;-75
2022/02/06 20:02:45;;;;;;;2.45;1.13;;;;;;;;;;6245082;23;19996;-75
2022/02/06 20:05:11;;;;;;;3.60;0.70;;;;;;;;;;6218990;23;20000;-76
2022/02/06 20:07:36;;;;;;;1.40;0.45;;;;;;;;;;6245915;23;20031;-76
2022/02/06 20:10:04;;;;;;;1.17;0.50;;;;;;;;;;6246010;23;20384;-76
2022/02/06 20:12:31;;;;;;;4.20;1.00;;;;;;;;;;6245782;23;20027;-76
2022/02/06 20:14:59;;;;;;;3.30;0.80;;;;;;;;;;6245551;23;20031;-76
2022/02/06 20:17:25;;;;;;;1.33;0.45;;;;;;;;;;6245346;23;20055;-76
2022/02/06 20:19:51;;;;;;;1.40;0.55;;;;;;;;;;6218899;23;19993;-77
2022/02/06 20:22:17;;;;;;;0.95;0.47;;;;;;;;;;6245152;23;20039;-76
2022/02/06 20:24:42;;;;;;;2.03;0.60;;;;;;;;;;6245451;23;20342;-76
2022/02/06 20:27:14;;;;;;;0.47;0.25;;;;;;;;;;6218663;23;20075;-76
2022/02/06 20:29:39;;;;;;;0.85;0.40;;;;;;;;;;6245617;23;19996;-76
2022/02/06 20:32:05;;;;;;;0.82;0.40;;;;;;;;;;6218378;23;20422;-77
2022/02/06 20:34:30;;;;;;;0.43;0.20;;;;;;;;;;6245585;23;19992;-76
2022/02/06 20:36:55;;;;;;;0.30;0.20;;;;;;;;;;6245707;23;20334;-76
2022/02/06 20:39:20;;;;;;;0.32;0.20;;;;;;;;;;6245788;23;20073;-76
2022/02/06 20:41:46;;;;;;;7.57;0.98;;;;;;;;;;6245361;23;20429;-77
2022/02/06 20:44:11;;;;;;;0.90;0.47;;;;;;;;;;6245748;23;20000;-79
2022/02/06 20:46:38;;;;;;;0.55;0.38;;;;;;;;;;6245654;23;20027;-77
2022/02/06 20:49:04;;;;;;;1.42;0.45;;;;;;;;;;6245966;23;20082;-76
2022/02/06 20:51:29;;;;;;;1.65;0.50;;;;;;;;;;6245903;23;20000;-78
2022/02/06 20:53:55;;;;;;;1.15;0.50;;;;;;;;;;6245751;23;20024;-76
2022/02/06 20:56:20;;;;;;;1.88;0.47;;;;;;;;;;6245698;23;20015;-77
2022/02/06 20:58:47;;;;;;;0.70;0.40;;;;;;;;;;6245413;23;20456;-76
2022/02/06 21:01:12;;;;;;;1.33;0.55;;;;;;;;;;6245395;23;19992;-76
2022/02/06 21:03:37;;;;;;;0.30;0.30;;;;;;;;;;6245333;23;20389;-76
2022/02/06 21:06:03;;;;;;;0.82;0.30;;;;;;;;;;6218755;23;20380;-76
2022/02/06 21:08:28;;;;;;;0.40;0.40;;;;;;;;;;6245993;23;19996;-77
2022/02/06 21:10:58;;;;;;;4.82;0.40;;;;;;;;;;6246174;23;20473;-76
2022/02/06 21:13:23;;;;;;;1.52;0.28;;;;;;;;;;6245872;23;20023;-77
2022/02/06 21:15:49;;;;;;;0.52;0.38;;;;;;;;;;6245448;23;20413;-77
2022/02/06 21:18:14;;;;;;;1.45;0.57;;;;;;;;;;6245698;23;19992;-76
2022/02/06 21:20:39;;;;;;;0.70;0.30;;;;;;;;;;6245605;23;19999;-76
2022/02/06 21:23:04;;;;;;;0.57;0.30;;;;;;;;;;6245081;23;20018;-76
2022/02/06 21:25:30;;;;;;;1.08;0.35;;;;;;;;;;6218595;23;20012;-76
2022/02/06 21:27:55;;;;;;;0.65;0.32;;;;;;;;;;6245691;23;20422;-76
2022/02/06 21:30:21;;;;;;;0.52;0.20;;;;;;;;;;6245475;23;19996;-77
2022/02/06 21:32:46;;;;;;;0.50;0.20;;;;;;;;;;6243353;23;20341;-76
2022/02/06 21:35:15;;;;;;;1.50;0.40;;;;;;;;;;6243098;23;20003;-76
2022/02/06 21:37:40;;;;;;;0.77;0.30;;;;;;;;;;6242803;23;20145;-77
2022/02/06 21:40:06;;;;;;;0.60;0.30;;;;;;;;;;6243072;23;20047;-76
2022/02/06 21:42:31;;;;;;;0.40;0.25;;;;;;;;;;6243007;23;20020;-76
2022/02/06 21:44:56;;;;;;;1.05;0.38;;;;;;;;;;6244245;23;20457;-76
2022/02/06 21:47:22;;;;;;;0.30;0.20;;;;;;;;;;6217492;23;20004;-76
2022/02/06 21:49:52;;;;;;;0.70;0.28;;;;;;;;;;6218588;23;20004;-75
2022/02/06 21:52:17;;;;;;;0.30;0.20;;;;;;;;;;6245454;23;20004;-76
2022/02/06 21:54:42;;;;;;;2.30;0.45;;;;;;;;;;6245878;23;20027;-76
2022/02/06 21:57:12;;;;;;;0.55;0.28;;;;;;;;;;6246346;23;20421;-76
2022/02/06 21:59:38;;;;;;;0.90;0.45;;;;;;;;;;6219005;23;20334;-75
2022/02/06 22:02:05;;;;;;;3.03;0.43;;;;;;;;;;6218439;23;19996;-76
2022/02/06 22:04:30;;;;;;;1.83;0.52;;;;;;;;;;6244463;23;19996;-76
2022/02/06 22:06:55;;;;;;;0.57;0.38;;;;;;;;;;6245109;23;20307;-76
2022/02/06 22:09:35;;;;;;;0.75;0.30;;;;;;;;;;6245811;23;20044;-76
2022/02/06 22:30:53;;;;;;;1.20;0.40;;;;;;;;;;6240638;23;20402;-82
2022/02/06 22:38:29;;;;;;;0.55;0.32;;;;;;;;;;6158256;23;20052;-81
2022/02/06 22:40:57;;;;;;;0.77;0.40;;;;;;;;;;6212791;23;20069;-84
2022/02/06 22:43:26;;;;;;;1.17;0.60;;;;;;;;;;6212173;23;20068;-84
2022/02/06 22:45:51;;;;;;;1.05;0.60;;;;;;;;;;6185065;22;20009;-84
2022/02/06 22:48:16;;;;;;;1.60;0.60;;;;;;;;;;6224087;22;20016;-82
2022/02/06 22:50:42;;;;;;;0.57;0.40;;;;;;;;;;6216907;22;19992;-84
2022/02/06 22:53:10;;;;;;;1.50;0.50;;;;;;;;;;6243618;23;19985;-84
2022/02/06 22:55:37;;;;;;;1.50;0.50;;;;;;;;;;6193249;23;20012;-83
2022/02/06 22:58:02;;;;;;;2.10;0.40;;;;;;;;;;6243758;22;19993;-83
2022/02/06 23:00:39;;;;;;;0.65;0.40;;;;;;;;;;6241550;23;20019;-88
2022/02/06 23:03:06;;;;;;;4.15;1.63;;;;;;;;;;6213113;23;20001;-86
2022/02/06 23:05:32;;;;;;;1.15;0.40;;;;;;;;;;6214628;22;20083;-87